createdAt,value
2018-09-03T00:01:34.597Z,4.23
2018-09-03T00:04:37.762Z,3.97
2018-09-03T00:07:41.032Z,4.10
2018-09-03T00:10:44.254Z,4.37
2018-09-03T00:13:47.555Z,4.20
2018-09-03T00:16:50.879Z,4.53
2018-09-03T00:19:54.210Z,4.60
2018-09-03T00:22:58.367Z,4.60
2018-09-03T00:26:02.003Z,4.17
2018-09-03T00:29:05.282Z,4.87
2018-09-03T00:32:13.839Z,3.83
2018-09-03T00:35:22.602Z,4.43
2018-09-03T00:38:31.240Z,4.37
2018-09-03T00:41:39.971Z,3.87
2018-09-03T00:44:48.688Z,4.27
2018-09-03T00:47:51.854Z,4.73
2018-09-03T00:50:56.845Z,4.47
2018-09-03T00:54:00.436Z,4.30
2018-09-03T00:57:03.741Z,4.37
2018-09-03T01:00:07.577Z,4.13
2018-09-03T01:03:11.965Z,4.50
2018-09-03T01:06:15.262Z,3.77
2018-09-03T01:09:18.671Z,4.60
2018-09-03T01:12:21.954Z,4.67
2018-09-03T01:15:28.706Z,4.63
2018-09-03T01:18:36.079Z,4.50
2018-09-03T01:21:39.329Z,4.60
2018-09-03T01:24:42.612Z,4.43
2018-09-03T01:27:45.956Z,4.20
2018-09-03T01:30:49.208Z,4.60
2018-09-03T01:33:53.666Z,4.60
2018-09-03T01:36:58.918Z,4.73
2018-09-03T01:40:02.154Z,4.63
2018-09-03T01:43:05.440Z,4.47
2018-09-03T01:46:08.755Z,4.90
2018-09-03T01:49:11.969Z,4.63
2018-09-03T01:52:15.323Z,5.07
2018-09-03T01:55:18.543Z,4.90
2018-09-03T01:58:21.840Z,4.67
2018-09-03T02:01:25.147Z,4.87
2018-09-03T02:04:29.280Z,4.37
2018-09-03T02:07:32.658Z,4.57
2018-09-03T02:10:35.948Z,4.80
2018-09-03T02:13:40.171Z,4.37
2018-09-03T02:16:43.469Z,4.60
2018-09-03T02:19:46.836Z,4.80
2018-09-03T02:22:50.090Z,4.90
2018-09-03T02:25:53.275Z,4.23
2018-09-03T02:28:56.486Z,4.77
2018-09-03T02:31:59.988Z,4.47
2018-09-03T02:35:03.904Z,4.83
2018-09-03T02:38:07.177Z,4.90
2018-09-03T02:41:10.475Z,4.63
2018-09-03T02:44:13.785Z,4.13
2018-09-03T02:47:16.966Z,4.40
2018-09-03T02:50:20.255Z,4.70
2018-09-03T02:53:23.571Z,5.33
2018-09-03T02:56:26.761Z,5.00
2018-09-03T02:59:29.977Z,5.33
2018-09-03T03:02:33.256Z,5.63
2018-09-03T03:05:36.539Z,5.80
2018-09-03T03:08:40.263Z,5.17
2018-09-03T03:11:43.611Z,5.67
2018-09-03T03:14:47.892Z,6.03
2018-09-03T03:17:51.160Z,6.07
2018-09-03T03:20:54.467Z,6.70
2018-09-03T03:23:58.136Z,5.60
2018-09-03T03:27:01.370Z,6.27
2018-09-03T03:30:05.015Z,5.53
2018-09-03T03:33:08.251Z,5.30
2018-09-03T03:36:11.477Z,5.53
2018-09-03T03:39:14.782Z,5.90
2018-09-03T03:42:18.041Z,5.73
2018-09-03T03:45:21.299Z,6.10
2018-09-03T03:48:24.511Z,5.20
2018-09-03T03:51:28.702Z,5.60
2018-09-03T03:54:33.022Z,5.40
2018-09-03T03:57:36.771Z,5.47
2018-09-03T04:00:40.122Z,5.80
2018-09-03T04:03:43.467Z,5.00
2018-09-03T04:06:46.808Z,5.83
2018-09-03T04:09:49.955Z,5.87
2018-09-03T04:12:54.947Z,5.60
2018-09-03T04:15:59.746Z,5.73
2018-09-03T04:19:03.043Z,5.23
2018-09-03T04:22:06.364Z,5.83
2018-09-03T04:25:10.655Z,5.50
2018-09-03T04:28:13.852Z,5.40
2018-09-03T04:31:17.406Z,5.77
2018-09-03T04:34:20.565Z,5.40
2018-09-03T04:37:23.922Z,5.63
2018-09-03T04:40:27.236Z,5.80
2018-09-03T04:43:30.448Z,6.17
2018-09-03T04:46:33.792Z,5.77
2018-09-03T04:49:38.258Z,5.50
2018-09-03T04:52:41.469Z,5.67
2018-09-03T04:55:44.775Z,5.40
2018-09-03T04:58:48.078Z,6.00
2018-09-03T05:01:51.503Z,6.33
2018-09-03T05:04:54.627Z,5.47
2018-09-03T05:07:57.964Z,6.07
2018-09-03T05:11:01.267Z,5.83
2018-09-03T05:14:04.999Z,6.17
2018-09-03T05:17:08.249Z,5.97
2018-09-03T05:20:11.465Z,5.70
2018-09-03T05:23:14.782Z,6.70
2018-09-03T05:26:18.044Z,5.97
2018-09-03T05:29:21.262Z,5.97
2018-09-03T05:32:24.563Z,6.37
2018-09-03T05:35:27.860Z,6.17
2018-09-03T05:38:31.177Z,5.77
2018-09-03T05:41:34.588Z,6.23
2018-09-03T05:44:38.818Z,6.00
2018-09-03T05:47:42.073Z,6.33
2018-09-03T05:50:45.358Z,5.57
2018-09-03T05:53:48.456Z,5.50
2018-09-03T05:56:51.634Z,6.03
2018-09-03T05:59:54.982Z,6.30
2018-09-03T06:02:58.270Z,6.23
2018-09-03T06:06:01.776Z,5.77
2018-09-03T06:09:08.461Z,5.50
2018-09-03T06:12:11.703Z,5.83
2018-09-03T06:15:15.008Z,5.53
2018-09-03T06:18:18.635Z,6.07
2018-09-03T06:21:21.922Z,5.43
2018-09-03T06:24:25.096Z,5.57
2018-09-03T06:27:28.399Z,5.30
2018-09-03T06:30:31.751Z,5.10
2018-09-03T06:33:35.000Z,5.23
2018-09-03T06:36:39.215Z,5.30
2018-09-03T06:39:42.431Z,5.70
2018-09-03T06:42:45.851Z,6.13
2018-09-03T06:45:49.181Z,6.10
2018-09-03T06:48:52.399Z,5.57
2018-09-03T06:51:55.745Z,6.10
2018-09-03T06:54:58.956Z,5.87
2018-09-03T06:58:02.163Z,5.67
2018-09-03T07:01:05.547Z,6.13
2018-09-03T07:04:09.716Z,6.40
2018-09-03T07:07:13.027Z,6.20
2018-09-03T07:10:16.236Z,5.77
2018-09-03T07:13:19.496Z,5.93
2018-09-03T07:16:22.836Z,5.80
2018-09-03T07:19:26.348Z,6.43
2018-09-03T07:22:29.947Z,6.03
2018-09-03T07:25:33.240Z,6.27
2018-09-03T07:28:36.531Z,6.33
2018-09-03T07:31:40.400Z,6.43
2018-09-03T07:34:43.560Z,6.60
2018-09-03T07:37:46.892Z,6.67
2018-09-03T07:40:50.193Z,6.30
2018-09-03T07:43:53.397Z,6.10
2018-09-03T07:46:56.537Z,6.70
2018-09-03T07:50:00.487Z,7.20
2018-09-03T07:53:03.739Z,6.57
2018-09-03T07:56:07.037Z,7.23
2018-09-03T07:59:11.539Z,6.90
2018-09-03T08:02:14.803Z,7.10
2018-09-03T08:05:18.103Z,6.73
2018-09-03T08:08:21.410Z,6.47
2018-09-03T08:11:24.736Z,6.73
2018-09-03T08:14:28.022Z,6.67
2018-09-03T08:17:31.348Z,6.57
2018-09-03T08:20:34.472Z,6.10
2018-09-03T08:23:38.359Z,6.63
2018-09-03T08:26:41.615Z,6.37
2018-09-03T08:29:44.814Z,6.60
2018-09-03T08:32:48.111Z,6.40
2018-09-03T08:35:51.384Z,6.90
2018-09-03T08:38:54.617Z,6.93
2018-09-03T08:41:57.938Z,6.60
2018-09-03T08:45:01.244Z,5.97
2018-09-03T08:48:04.536Z,6.37
2018-09-03T08:51:08.344Z,7.23
2018-09-03T08:54:11.628Z,7.00
2018-09-03T08:57:14.933Z,7.03
2018-09-03T09:00:18.325Z,6.63
2018-09-03T09:03:27.104Z,7.03
2018-09-03T09:06:30.448Z,7.37
2018-09-03T09:09:33.658Z,6.47
2018-09-03T09:12:37.117Z,6.13
2018-09-03T09:15:41.786Z,6.43
2018-09-03T09:18:45.159Z,6.73
2018-09-03T09:21:48.477Z,5.67
2018-09-03T09:24:51.778Z,5.40
2018-09-03T09:27:55.196Z,6.07
2018-09-03T09:30:58.343Z,6.00
2018-09-03T09:34:01.748Z,6.40
2018-09-03T09:37:05.083Z,5.80
2018-09-03T09:40:09.404Z,6.07
2018-09-03T09:43:12.726Z,5.57
2018-09-03T09:46:15.979Z,6.23
2018-09-03T09:49:19.171Z,6.30
2018-09-03T09:52:22.488Z,6.23
2018-09-03T09:55:25.627Z,5.90
2018-09-03T09:58:29.692Z,6.10
2018-09-03T10:01:39.039Z,5.97
2018-09-03T10:04:42.295Z,6.53
2018-09-03T10:07:45.660Z,6.50
2018-09-03T10:10:48.899Z,6.70
2018-09-03T10:13:52.203Z,7.10
2018-09-03T10:16:55.416Z,6.30
2018-09-03T10:19:59.792Z,6.90
2018-09-03T10:23:03.093Z,6.73
2018-09-03T10:26:06.407Z,7.03
2018-09-03T10:29:10.743Z,6.07
2018-09-03T10:32:14.052Z,6.87
2018-09-03T10:35:17.402Z,6.53
2018-09-03T10:38:20.734Z,6.93
2018-09-03T10:41:24.069Z,6.40
2018-09-03T10:44:28.360Z,7.07
2018-09-03T10:47:31.723Z,6.97
2018-09-03T10:50:34.920Z,6.77
2018-09-03T10:53:38.246Z,7.40
2018-09-03T10:56:42.330Z,6.70
2018-09-03T10:59:45.643Z,6.17
2018-09-03T11:02:48.824Z,6.10
2018-09-03T11:05:52.158Z,7.17
2018-09-03T11:08:55.419Z,6.50
2018-09-03T11:11:58.805Z,5.90
2018-09-03T11:15:02.088Z,5.80
2018-09-03T11:18:05.310Z,6.57
2018-09-03T11:21:09.956Z,6.20
2018-09-03T11:24:13.266Z,6.70
2018-09-03T11:27:16.624Z,6.67
2018-09-03T11:30:21.220Z,6.43
2018-09-03T11:33:24.342Z,6.20
2018-09-03T11:36:27.695Z,5.97
2018-09-03T11:39:31.003Z,6.87
2018-09-03T11:42:34.342Z,6.30
2018-09-03T11:45:37.673Z,7.53
2018-09-03T11:48:42.144Z,5.90
2018-09-03T11:51:45.404Z,6.10
2018-09-03T11:54:48.662Z,5.90
2018-09-03T11:57:52.056Z,5.83
2018-09-03T12:00:57.862Z,6.03
2018-09-03T12:04:01.023Z,6.20
2018-09-03T12:07:04.254Z,5.63
2018-09-03T12:10:07.662Z,5.73
2018-09-03T12:13:11.969Z,5.80
2018-09-03T12:16:20.197Z,4.87
2018-09-03T12:19:23.735Z,5.13
2018-09-03T12:22:27.056Z,4.80
2018-09-03T12:25:30.403Z,4.90
2018-09-03T12:28:34.716Z,4.67
2018-09-03T12:31:38.083Z,4.53
2018-09-03T12:34:42.233Z,5.03
2018-09-03T12:37:45.516Z,5.30
2018-09-03T12:40:48.734Z,4.57
2018-09-03T12:43:52.036Z,5.00
2018-09-03T12:46:55.427Z,5.70
2018-09-03T12:49:58.706Z,5.00
2018-09-03T12:53:01.979Z,4.83
2018-09-03T12:56:05.132Z,4.70
2018-09-03T12:59:08.420Z,4.23
2018-09-03T13:02:13.125Z,4.40
2018-09-03T13:05:16.452Z,4.73
2018-09-03T13:08:19.787Z,4.70
2018-09-03T13:11:23.091Z,4.77
2018-09-03T13:14:26.314Z,4.77
2018-09-03T13:17:29.513Z,4.73
2018-09-03T13:20:32.889Z,4.60
2018-09-03T13:23:36.090Z,4.33
2018-09-03T13:26:41.367Z,4.73
2018-09-03T13:29:44.626Z,4.90
2018-09-03T13:32:47.842Z,4.60
2018-09-03T13:35:51.026Z,4.60
2018-09-03T13:38:54.379Z,4.40
2018-09-03T13:41:57.655Z,4.43
2018-09-03T13:45:00.936Z,4.60
2018-09-03T13:48:04.429Z,4.53
2018-09-03T13:51:07.692Z,4.13
2018-09-03T13:54:10.923Z,4.80
2018-09-03T13:57:14.071Z,4.40
2018-09-03T14:00:17.398Z,4.20
2018-09-03T14:03:20.579Z,5.20
2018-09-03T14:06:23.899Z,5.00
2018-09-03T14:09:27.219Z,5.03
2018-09-03T14:12:30.510Z,4.50
2018-09-03T14:15:33.827Z,4.93
2018-09-03T14:18:37.067Z,4.90
2018-09-03T14:21:40.827Z,4.87
2018-09-03T14:24:44.041Z,4.90
2018-09-03T14:27:47.257Z,5.10
2018-09-03T14:30:50.579Z,4.80
2018-09-03T14:33:54.112Z,4.93
2018-09-03T14:36:57.300Z,4.90
2018-09-03T14:40:00.683Z,5.10
2018-09-03T14:43:04.015Z,5.27
2018-09-03T14:46:07.179Z,5.10
2018-09-03T14:49:11.236Z,5.37
2018-09-03T14:52:14.479Z,5.23
2018-09-03T14:55:17.620Z,6.00
2018-09-03T14:58:21.014Z,5.43
2018-09-03T15:01:25.308Z,5.57
2018-09-03T15:04:28.584Z,5.47
2018-09-03T15:07:31.906Z,5.67
2018-09-03T15:10:36.249Z,5.40
2018-09-03T15:13:39.562Z,5.63
2018-09-03T15:16:43.487Z,5.60
2018-09-03T15:19:46.670Z,5.50
2018-09-03T15:22:50.023Z,6.00
2018-09-03T15:25:53.313Z,5.80
2018-09-03T15:28:56.514Z,6.13
2018-09-03T15:31:59.844Z,5.43
2018-09-03T15:35:03.095Z,6.00
2018-09-03T15:38:06.230Z,6.23
2018-09-03T15:41:10.366Z,6.30
2018-09-03T15:44:13.803Z,6.50
2018-09-03T15:47:17.026Z,6.57
2018-09-03T15:50:20.342Z,7.40
2018-09-03T15:53:24.546Z,6.93
2018-09-03T15:56:27.832Z,7.70
2018-09-03T15:59:31.163Z,7.33
2018-09-03T16:02:34.423Z,6.70
2018-09-03T16:05:37.784Z,6.80
2018-09-03T16:08:42.411Z,6.97
2018-09-03T16:11:46.287Z,7.30
2018-09-03T16:14:49.503Z,7.00
2018-09-03T16:17:52.927Z,6.83
2018-09-03T16:20:56.202Z,6.67
2018-09-03T16:23:59.367Z,7.20
2018-09-03T16:27:02.658Z,6.43
2018-09-03T16:30:06.159Z,7.27
2018-09-03T16:33:09.555Z,6.80
2018-09-03T16:36:14.304Z,6.90
2018-09-03T16:39:17.576Z,6.70
2018-09-03T16:42:20.787Z,6.83
2018-09-03T16:45:24.216Z,7.23
2018-09-03T16:48:27.632Z,7.10
2018-09-03T16:51:30.871Z,7.57
2018-09-03T16:54:34.151Z,7.30
2018-09-03T16:57:37.495Z,7.10
2018-09-03T17:00:41.202Z,7.13
2018-09-03T17:03:45.487Z,7.77
2018-09-03T17:06:48.791Z,7.60
2018-09-03T17:09:52.015Z,7.53
2018-09-03T17:12:55.326Z,7.07
2018-09-03T17:15:58.562Z,7.60
2018-09-03T17:19:08.155Z,7.33
2018-09-03T17:22:12.124Z,6.27
2018-09-03T17:25:15.347Z,6.60
2018-09-03T17:28:18.676Z,6.93
2018-09-03T17:31:21.941Z,7.20
2018-09-03T17:34:25.287Z,6.97
2018-09-03T17:37:28.636Z,6.87
2018-09-03T17:40:31.924Z,7.07
2018-09-03T17:43:35.070Z,7.20
2018-09-03T17:46:38.448Z,7.47
2018-09-03T17:49:42.643Z,7.47
2018-09-03T17:52:45.837Z,7.63
2018-09-03T17:55:49.187Z,7.90
2018-09-03T17:58:52.404Z,7.47
2018-09-03T18:01:55.623Z,7.73
2018-09-03T18:04:58.927Z,7.60
2018-09-03T18:08:02.225Z,7.30
2018-09-03T18:11:05.539Z,10.20
2018-09-03T18:14:08.843Z,8.60
2018-09-03T18:17:12.584Z,9.23
2018-09-03T18:20:15.948Z,9.57
2018-09-03T18:23:19.223Z,9.80
2018-09-03T18:26:22.505Z,8.47
2018-09-03T18:29:25.811Z,10.00
2018-09-03T18:32:29.099Z,9.00
2018-09-03T18:35:32.398Z,9.13
2018-09-03T18:38:36.599Z,9.93
2018-09-03T18:41:39.916Z,9.30
2018-09-03T18:44:44.155Z,9.47
2018-09-03T18:47:47.495Z,9.90
2018-09-03T18:50:50.748Z,9.30
2018-09-03T18:53:54.159Z,8.97
2018-09-03T18:56:57.528Z,8.63
2018-09-03T19:00:00.861Z,8.83
2018-09-03T19:03:04.115Z,9.07
2018-09-03T19:06:07.506Z,8.60
2018-09-03T19:09:10.963Z,9.23
2018-09-03T19:12:14.547Z,8.87
2018-09-03T19:15:17.761Z,8.30
2018-09-03T19:18:21.015Z,9.87
2018-09-03T19:21:24.144Z,9.23
2018-09-03T19:24:28.548Z,9.70
2018-09-03T19:27:31.781Z,9.07
2018-09-03T19:30:35.965Z,8.50
2018-09-03T19:33:39.246Z,8.30
2018-09-03T19:36:43.888Z,8.70
2018-09-03T19:39:47.321Z,8.47
2018-09-03T19:42:50.606Z,8.43
2018-09-03T19:45:54.004Z,8.77
2018-09-03T19:48:57.265Z,8.80
2018-09-03T19:52:00.671Z,9.23
2018-09-03T19:55:03.881Z,9.40
2018-09-03T19:58:07.194Z,9.70
2018-09-03T20:01:10.478Z,9.40
2018-09-03T20:04:14.958Z,9.07
2018-09-03T20:07:19.467Z,10.40
2018-09-03T20:10:22.597Z,10.27
2018-09-03T20:13:26.038Z,8.87
2018-09-03T20:16:29.295Z,9.30
2018-09-03T20:19:32.622Z,10.07
2018-09-03T20:22:35.965Z,9.63
2018-09-03T20:25:39.330Z,9.70
2018-09-03T20:28:43.337Z,10.30
2018-09-03T20:31:46.607Z,8.87
2018-09-03T20:34:49.885Z,9.90
2018-09-03T20:37:53.263Z,9.40
2018-09-03T20:40:56.514Z,9.27
2018-09-03T20:43:59.932Z,10.47
2018-09-03T20:47:03.230Z,10.37
2018-09-03T20:50:07.407Z,9.83
2018-09-03T20:53:10.739Z,10.33
2018-09-03T20:56:15.024Z,10.07
2018-09-03T20:59:18.688Z,8.93
2018-09-03T21:02:21.978Z,9.70
2018-09-03T21:05:25.139Z,9.83
2018-09-03T21:08:28.509Z,9.93
2018-09-03T21:11:31.743Z,9.60
2018-09-03T21:14:35.049Z,9.50
2018-09-03T21:17:38.213Z,9.83
2018-09-03T21:20:44.606Z,9.83
2018-09-03T21:23:47.887Z,9.23
2018-09-03T21:26:51.091Z,8.57
2018-09-03T21:29:54.340Z,9.97
2018-09-03T21:32:57.695Z,10.23
2018-09-03T21:36:01.304Z,10.53
2018-09-03T21:39:05.445Z,9.97
2018-09-03T21:42:08.632Z,10.10
2018-09-03T21:45:13.063Z,10.77
2018-09-03T21:48:16.334Z,9.97
2018-09-03T21:51:19.728Z,9.93
2018-09-03T21:54:23.034Z,9.80
2018-09-03T21:57:26.386Z,9.97
2018-09-03T22:00:29.723Z,10.20
2018-09-03T22:03:32.980Z,10.10
2018-09-03T22:06:36.218Z,10.80
2018-09-03T22:09:39.495Z,10.33
2018-09-03T22:12:43.382Z,10.33
2018-09-03T22:15:46.709Z,10.00
2018-09-03T22:18:50.025Z,10.30
2018-09-03T22:21:53.247Z,9.50
2018-09-03T22:24:56.549Z,10.57
2018-09-03T22:27:59.991Z,10.20
2018-09-03T22:31:03.448Z,10.37
2018-09-03T22:34:06.698Z,10.57
2018-09-03T22:37:10.012Z,9.33
2018-09-03T22:40:14.309Z,11.30
2018-09-03T22:43:17.640Z,11.37
2018-09-03T22:46:20.921Z,11.50
2018-09-03T22:49:24.102Z,10.93
2018-09-03T22:52:27.433Z,11.33
2018-09-03T22:55:30.941Z,9.83
2018-09-03T22:58:34.200Z,11.30
2018-09-03T23:01:37.527Z,11.60
2018-09-03T23:04:40.770Z,10.87
2018-09-03T23:07:45.224Z,10.60
2018-09-03T23:10:48.535Z,11.90
2018-09-03T23:13:51.823Z,11.83
2018-09-03T23:16:55.041Z,11.60
2018-09-03T23:19:58.332Z,11.33
2018-09-03T23:23:01.612Z,11.60
2018-09-03T23:26:04.915Z,11.40
2018-09-03T23:29:14.622Z,11.23
2018-09-03T23:32:17.924Z,11.80
2018-09-03T23:35:21.156Z,12.30
2018-09-03T23:38:24.478Z,11.90
2018-09-03T23:41:27.740Z,12.43
2018-09-03T23:44:31.011Z,12.23
2018-09-03T23:47:34.323Z,12.47
2018-09-03T23:50:37.679Z,11.87
2018-09-03T23:53:43.024Z,11.50
2018-09-03T23:57:02.472Z,11.53
